sensor_id;sensor_type;location;lat;lon;timestamp;P1;durP1;ratioP1;P2;durP2;ratioP2
36789;SDS011;22740;52.182;8.780;2022-08-23T00:05:58;4.68;;;1.70;;
36789;SDS011;22740;52.182;8.780;2022-08-23T00:12:06;4.95;;;1.52;;
36789;SDS011;22740;52.182;8.780;2022-08-23T00:18:20;6.18;;;1.67;;
36789;SDS011;22740;52.182;8.780;2022-08-23T00:24:26;5.13;;;1.67;;
36789;SDS011;22740;52.182;8.780;2022-08-23T00:30:28;5.18;;;1.60;;
36789;SDS011;22740;52.182;8.780;2022-08-23T00:36:30;4.32;;;1.52;;
36789;SDS011;22740;52.182;8.780;2022-08-23T00:42:52;4.53;;;1.63;;
36789;SDS011;22740;52.182;8.780;2022-08-23T00:49:16;4.75;;;1.50;;
36789;SDS011;22740;52.182;8.780;2022-08-23T00:55:19;6.82;;;1.60;;
36789;SDS011;22740;52.182;8.780;2022-08-23T01:01:22;4.27;;;1.83;;
36789;SDS011;22740;52.182;8.780;2022-08-23T01:07:43;6.47;;;1.93;;
36789;SDS011;22740;52.182;8.780;2022-08-23T01:13:53;5.32;;;1.90;;
36789;SDS011;22740;52.182;8.780;2022-08-23T01:20:02;5.40;;;1.88;;
36789;SDS011;22740;52.182;8.780;2022-08-23T01:26:11;4.82;;;1.70;;
36789;SDS011;22740;52.182;8.780;2022-08-23T01:32:22;5.00;;;1.90;;
36789;SDS011;22740;52.182;8.780;2022-08-23T01:44:33;3.92;;;1.73;;
36789;SDS011;22740;52.182;8.780;2022-08-23T01:50:37;9.27;;;1.40;;
36789;SDS011;22740;52.182;8.780;2022-08-23T01:56:40;4.57;;;1.60;;
36789;SDS011;22740;52.182;8.780;2022-08-23T02:02:43;6.10;;;1.67;;
36789;SDS011;22740;52.182;8.780;2022-08-23T02:08:47;3.15;;;1.60;;
36789;SDS011;22740;52.182;8.780;2022-08-23T02:15:04;4.15;;;1.88;;
36789;SDS011;22740;52.182;8.780;2022-08-23T02:21:06;5.60;;;1.80;;
36789;SDS011;22740;52.182;8.780;2022-08-23T02:27:11;5.35;;;1.70;;
36789;SDS011;22740;52.182;8.780;2022-08-23T02:33:16;4.28;;;1.70;;
36789;SDS011;22740;52.182;8.780;2022-08-23T02:39:18;5.93;;;1.83;;
36789;SDS011;22740;52.182;8.780;2022-08-23T02:45:22;3.60;;;1.60;;
36789;SDS011;22740;52.182;8.780;2022-08-23T02:51:25;3.15;;;1.40;;
36789;SDS011;22740;52.182;8.780;2022-08-23T02:57:27;7.47;;;1.98;;
36789;SDS011;22740;52.182;8.780;2022-08-23T03:03:33;8.10;;;1.73;;
36789;SDS011;22740;52.182;8.780;2022-08-23T03:09:38;7.57;;;1.80;;
36789;SDS011;22740;52.182;8.780;2022-08-23T03:15:41;6.50;;;1.90;;
36789;SDS011;22740;52.182;8.780;2022-08-23T03:21:47;5.93;;;1.98;;
36789;SDS011;22740;52.182;8.780;2022-08-23T03:27:50;4.35;;;1.60;;
36789;SDS011;22740;52.182;8.780;2022-08-23T03:33:52;5.18;;;1.70;;
36789;SDS011;22740;52.182;8.780;2022-08-23T03:39:55;5.28;;;1.83;;
36789;SDS011;22740;52.182;8.780;2022-08-23T03:45:58;6.57;;;1.80;;
36789;SDS011;22740;52.182;8.780;2022-08-23T03:52:07;4.82;;;1.67;;
36789;SDS011;22740;52.182;8.780;2022-08-23T03:58:11;5.30;;;1.60;;
36789;SDS011;22740;52.182;8.780;2022-08-23T04:04:13;8.15;;;1.70;;
36789;SDS011;22740;52.182;8.780;2022-08-23T04:10:16;5.43;;;1.80;;
36789;SDS011;22740;52.182;8.780;2022-08-23T04:16:18;13.93;;;2.58;;
36789;SDS011;22740;52.182;8.780;2022-08-23T04:22:20;5.13;;;1.48;;
36789;SDS011;22740;52.182;8.780;2022-08-23T04:28:23;3.22;;;1.55;;
36789;SDS011;22740;52.182;8.780;2022-08-23T04:34:25;4.65;;;1.50;;
36789;SDS011;22740;52.182;8.780;2022-08-23T04:40:30;5.47;;;1.58;;
36789;SDS011;22740;52.182;8.780;2022-08-23T04:46:50;4.32;;;1.50;;
36789;SDS011;22740;52.182;8.780;2022-08-23T04:52:52;4.05;;;1.40;;
36789;SDS011;22740;52.182;8.780;2022-08-23T04:58:54;8.75;;;1.45;;
36789;SDS011;22740;52.182;8.780;2022-08-23T05:04:58;6.35;;;1.85;;
36789;SDS011;22740;52.182;8.780;2022-08-23T05:11:03;7.55;;;1.75;;
36789;SDS011;22740;52.182;8.780;2022-08-23T05:17:06;4.25;;;1.67;;
36789;SDS011;22740;52.182;8.780;2022-08-23T05:23:09;2.57;;;1.30;;
36789;SDS011;22740;52.182;8.780;2022-08-23T05:29:11;5.30;;;1.55;;
36789;SDS011;22740;52.182;8.780;2022-08-23T05:35:16;5.72;;;1.60;;
36789;SDS011;22740;52.182;8.780;2022-08-23T05:41:18;3.47;;;1.48;;
36789;SDS011;22740;52.182;8.780;2022-08-23T05:47:21;6.50;;;1.60;;
36789;SDS011;22740;52.182;8.780;2022-08-23T05:59:27;6.20;;;1.42;;
36789;SDS011;22740;52.182;8.780;2022-08-23T06:05:29;4.70;;;1.58;;
36789;SDS011;22740;52.182;8.780;2022-08-23T06:11:32;5.68;;;1.90;;
36789;SDS011;22740;52.182;8.780;2022-08-23T06:17:35;5.40;;;1.80;;
36789;SDS011;22740;52.182;8.780;2022-08-23T06:23:38;3.20;;;1.15;;
36789;SDS011;22740;52.182;8.780;2022-08-23T06:29:40;4.15;;;1.70;;
36789;SDS011;22740;52.182;8.780;2022-08-23T06:35:43;4.57;;;1.63;;
36789;SDS011;22740;52.182;8.780;2022-08-23T06:41:45;7.22;;;1.70;;
36789;SDS011;22740;52.182;8.780;2022-08-23T06:47:50;6.22;;;1.40;;
36789;SDS011;22740;52.182;8.780;2022-08-23T06:53:52;5.18;;;1.50;;
36789;SDS011;22740;52.182;8.780;2022-08-23T06:59:56;5.18;;;1.52;;
36789;SDS011;22740;52.182;8.780;2022-08-23T07:05:58;5.15;;;1.52;;
36789;SDS011;22740;52.182;8.780;2022-08-23T07:12:00;5.80;;;2.10;;
36789;SDS011;22740;52.182;8.780;2022-08-23T07:18:03;5.17;;;1.70;;
36789;SDS011;22740;52.182;8.780;2022-08-23T07:24:11;5.03;;;1.80;;
36789;SDS011;22740;52.182;8.780;2022-08-23T07:30:14;5.40;;;1.93;;
36789;SDS011;22740;52.182;8.780;2022-08-23T07:36:16;7.75;;;1.70;;
36789;SDS011;22740;52.182;8.780;2022-08-23T07:42:21;6.20;;;1.60;;
36789;SDS011;22740;52.182;8.780;2022-08-23T07:48:26;4.65;;;1.50;;
36789;SDS011;22740;52.182;8.780;2022-08-23T07:54:50;5.90;;;1.60;;
36789;SDS011;22740;52.182;8.780;2022-08-23T08:00:55;4.28;;;1.55;;
36789;SDS011;22740;52.182;8.780;2022-08-23T08:07:00;4.72;;;1.60;;
36789;SDS011;22740;52.182;8.780;2022-08-23T08:13:20;4.90;;;1.60;;
36789;SDS011;22740;52.182;8.780;2022-08-23T08:25:24;5.03;;;1.60;;
36789;SDS011;22740;52.182;8.780;2022-08-23T08:31:27;7.15;;;1.48;;
36789;SDS011;22740;52.182;8.780;2022-08-23T08:49:46;5.18;;;1.70;;
36789;SDS011;22740;52.182;8.780;2022-08-23T08:55:56;5.50;;;1.42;;
36789;SDS011;22740;52.182;8.780;2022-08-23T09:02:01;3.35;;;1.30;;
36789;SDS011;22740;52.182;8.780;2022-08-23T09:08:32;7.43;;;1.50;;
36789;SDS011;22740;52.182;8.780;2022-08-23T09:21:14;4.68;;;1.50;;
36789;SDS011;22740;52.182;8.780;2022-08-23T09:27:18;6.47;;;1.35;;
36789;SDS011;22740;52.182;8.780;2022-08-23T09:33:21;7.00;;;1.65;;
36789;SDS011;22740;52.182;8.780;2022-08-23T09:39:30;3.10;;;1.30;;
36789;SDS011;22740;52.182;8.780;2022-08-23T09:45:36;6.72;;;1.45;;
36789;SDS011;22740;52.182;8.780;2022-08-23T09:51:40;6.88;;;1.90;;
36789;SDS011;22740;52.182;8.780;2022-08-23T09:57:50;5.47;;;1.75;;
36789;SDS011;22740;52.182;8.780;2022-08-23T10:10:26;5.00;;;1.60;;
36789;SDS011;22740;52.182;8.780;2022-08-23T10:16:39;5.93;;;1.35;;
36789;SDS011;22740;52.182;8.780;2022-08-23T10:23:05;6.55;;;1.42;;
36789;SDS011;22740;52.182;8.780;2022-08-23T10:29:36;5.70;;;1.70;;
36789;SDS011;22740;52.182;8.780;2022-08-23T10:48:27;2.58;;;1.20;;
36789;SDS011;22740;52.182;8.780;2022-08-23T10:54:42;4.90;;;1.48;;
36789;SDS011;22740;52.182;8.780;2022-08-23T11:00:50;5.72;;;1.48;;
36789;SDS011;22740;52.182;8.780;2022-08-23T11:06:55;4.70;;;1.60;;
36789;SDS011;22740;52.182;8.780;2022-08-23T11:13:03;4.00;;;1.50;;
36789;SDS011;22740;52.182;8.780;2022-08-23T11:19:19;6.30;;;1.42;;
36789;SDS011;22740;52.182;8.780;2022-08-23T11:25:52;6.82;;;1.75;;
36789;SDS011;22740;52.182;8.780;2022-08-23T11:32:41;5.35;;;1.40;;
36789;SDS011;22740;52.182;8.780;2022-08-23T11:39:14;11.65;;;1.92;;
36789;SDS011;22740;52.182;8.780;2022-08-23T11:44:51;9.05;;;1.40;;
36789;SDS011;22740;52.182;8.780;2022-08-23T11:58:17;7.28;;;1.65;;
36789;SDS011;22740;52.182;8.780;2022-08-23T12:16:41;6.55;;;1.40;;
36789;SDS011;22740;52.182;8.780;2022-08-23T12:42:24;4.85;;;1.80;;
36789;SDS011;22740;52.182;8.780;2022-08-23T12:48:30;3.80;;;1.70;;
36789;SDS011;22740;52.182;8.780;2022-08-23T12:54:41;5.65;;;1.60;;
36789;SDS011;22740;52.182;8.780;2022-08-23T13:00:52;4.35;;;1.80;;
36789;SDS011;22740;52.182;8.780;2022-08-23T13:06:58;2.97;;;1.48;;
36789;SDS011;22740;52.182;8.780;2022-08-23T13:13:04;7.00;;;1.88;;
36789;SDS011;22740;52.182;8.780;2022-08-23T13:25:51;6.25;;;1.70;;
36789;SDS011;22740;52.182;8.780;2022-08-23T13:44:22;3.47;;;1.70;;
36789;SDS011;22740;52.182;8.780;2022-08-23T13:50:29;4.05;;;1.70;;
36789;SDS011;22740;52.182;8.780;2022-08-23T13:56:37;3.28;;;1.60;;
36789;SDS011;22740;52.182;8.780;2022-08-23T14:03:02;6.78;;;1.50;;
36789;SDS011;22740;52.182;8.780;2022-08-23T14:09:05;5.00;;;2.05;;
36789;SDS011;22740;52.182;8.780;2022-08-23T14:15:08;6.45;;;1.73;;
36789;SDS011;22740;52.182;8.780;2022-08-23T14:21:13;5.78;;;2.03;;
36789;SDS011;22740;52.182;8.780;2022-08-23T14:27:15;5.03;;;1.50;;
36789;SDS011;22740;52.182;8.780;2022-08-23T14:39:23;8.05;;;1.65;;
36789;SDS011;22740;52.182;8.780;2022-08-23T14:45:24;4.38;;;1.55;;
36789;SDS011;22740;52.182;8.780;2022-08-23T14:51:32;5.22;;;1.80;;
36789;SDS011;22740;52.182;8.780;2022-08-23T14:57:43;5.35;;;1.67;;
36789;SDS011;22740;52.182;8.780;2022-08-23T15:15:51;3.55;;;1.70;;
36789;SDS011;22740;52.182;8.780;2022-08-23T15:21:54;5.88;;;1.60;;
36789;SDS011;22740;52.182;8.780;2022-08-23T15:33:58;4.90;;;2.33;;
36789;SDS011;22740;52.182;8.780;2022-08-23T15:40:00;7.45;;;1.92;;
36789;SDS011;22740;52.182;8.780;2022-08-23T15:46:04;5.38;;;1.90;;
36789;SDS011;22740;52.182;8.780;2022-08-23T15:52:08;6.88;;;1.90;;
36789;SDS011;22740;52.182;8.780;2022-08-23T15:58:14;8.10;;;1.60;;
36789;SDS011;22740;52.182;8.780;2022-08-23T16:04:22;4.72;;;2.00;;
36789;SDS011;22740;52.182;8.780;2022-08-23T16:10:24;5.72;;;1.70;;
36789;SDS011;22740;52.182;8.780;2022-08-23T16:16:29;4.85;;;1.88;;
36789;SDS011;22740;52.182;8.780;2022-08-23T16:22:34;10.70;;;2.03;;
36789;SDS011;22740;52.182;8.780;2022-08-23T16:34:38;5.15;;;1.73;;
36789;SDS011;22740;52.182;8.780;2022-08-23T16:40:42;4.55;;;1.90;;
36789;SDS011;22740;52.182;8.780;2022-08-23T16:46:45;8.68;;;2.30;;
36789;SDS011;22740;52.182;8.780;2022-08-23T16:52:48;7.93;;;1.80;;
36789;SDS011;22740;52.182;8.780;2022-08-23T16:58:51;4.70;;;1.95;;
36789;SDS011;22740;52.182;8.780;2022-08-23T17:04:53;6.18;;;1.85;;
36789;SDS011;22740;52.182;8.780;2022-08-23T17:10:56;6.28;;;1.73;;
36789;SDS011;22740;52.182;8.780;2022-08-23T17:17:03;5.93;;;1.88;;
36789;SDS011;22740;52.182;8.780;2022-08-23T17:23:06;8.00;;;2.08;;
36789;SDS011;22740;52.182;8.780;2022-08-23T17:29:09;6.18;;;1.90;;
36789;SDS011;22740;52.182;8.780;2022-08-23T17:35:12;6.97;;;2.17;;
36789;SDS011;22740;52.182;8.780;2022-08-23T17:41:16;6.68;;;1.88;;
36789;SDS011;22740;52.182;8.780;2022-08-23T17:47:18;8.10;;;1.87;;
36789;SDS011;22740;52.182;8.780;2022-08-23T17:53:20;6.80;;;2.10;;
36789;SDS011;22740;52.182;8.780;2022-08-23T17:59:23;6.40;;;2.03;;
36789;SDS011;22740;52.182;8.780;2022-08-23T18:05:25;8.80;;;2.00;;
36789;SDS011;22740;52.182;8.780;2022-08-23T18:11:29;5.07;;;1.95;;
36789;SDS011;22740;52.182;8.780;2022-08-23T18:17:32;4.97;;;2.35;;
36789;SDS011;22740;52.182;8.780;2022-08-23T18:29:37;3.63;;;1.98;;
36789;SDS011;22740;52.182;8.780;2022-08-23T18:35:39;12.47;;;2.20;;
36789;SDS011;22740;52.182;8.780;2022-08-23T18:47:44;8.63;;;1.85;;
36789;SDS011;22740;52.182;8.780;2022-08-23T18:53:46;7.07;;;1.80;;
36789;SDS011;22740;52.182;8.780;2022-08-23T18:59:48;8.77;;;1.73;;
36789;SDS011;22740;52.182;8.780;2022-08-23T19:05:50;5.37;;;1.70;;
36789;SDS011;22740;52.182;8.780;2022-08-23T19:11:53;8.23;;;1.87;;
36789;SDS011;22740;52.182;8.780;2022-08-23T19:17:55;8.00;;;1.80;;
36789;SDS011;22740;52.182;8.780;2022-08-23T19:23:59;7.63;;;1.80;;
36789;SDS011;22740;52.182;8.780;2022-08-23T19:30:03;4.87;;;1.40;;
36789;SDS011;22740;52.182;8.780;2022-08-23T19:36:06;5.65;;;1.75;;
36789;SDS011;22740;52.182;8.780;2022-08-23T19:42:30;4.63;;;1.17;;
36789;SDS011;22740;52.182;8.780;2022-08-23T19:48:36;2.80;;;1.33;;
36789;SDS011;22740;52.182;8.780;2022-08-23T19:54:38;6.57;;;1.30;;
36789;SDS011;22740;52.182;8.780;2022-08-23T20:00:41;6.70;;;1.13;;
36789;SDS011;22740;52.182;8.780;2022-08-23T20:06:43;4.10;;;1.30;;
36789;SDS011;22740;52.182;8.780;2022-08-23T20:12:45;6.23;;;1.30;;
36789;SDS011;22740;52.182;8.780;2022-08-23T20:18:47;4.97;;;1.10;;
36789;SDS011;22740;52.182;8.780;2022-08-23T20:24:51;7.43;;;1.13;;
36789;SDS011;22740;52.182;8.780;2022-08-23T20:30:53;4.97;;;1.42;;
36789;SDS011;22740;52.182;8.780;2022-08-23T20:36:55;5.38;;;1.10;;
36789;SDS011;22740;52.182;8.780;2022-08-23T20:42:58;2.67;;;1.10;;
36789;SDS011;22740;52.182;8.780;2022-08-23T20:49:00;6.28;;;1.25;;
36789;SDS011;22740;52.182;8.780;2022-08-23T20:55:03;5.23;;;1.13;;
36789;SDS011;22740;52.182;8.780;2022-08-23T21:01:11;3.95;;;1.10;;
36789;SDS011;22740;52.182;8.780;2022-08-23T21:07:14;2.85;;;1.00;;
36789;SDS011;22740;52.182;8.780;2022-08-23T21:13:16;6.13;;;1.30;;
36789;SDS011;22740;52.182;8.780;2022-08-23T21:19:18;7.05;;;1.30;;
36789;SDS011;22740;52.182;8.780;2022-08-23T21:25:21;3.10;;;1.10;;
36789;SDS011;22740;52.182;8.780;2022-08-23T21:31:23;2.53;;;1.03;;
36789;SDS011;22740;52.182;8.780;2022-08-23T21:37:27;5.45;;;1.20;;
36789;SDS011;22740;52.182;8.780;2022-08-23T21:43:30;5.63;;;1.10;;
36789;SDS011;22740;52.182;8.780;2022-08-23T21:55:35;3.70;;;1.23;;
36789;SDS011;22740;52.182;8.780;2022-08-23T22:01:37;4.43;;;0.95;;
36789;SDS011;22740;52.182;8.780;2022-08-23T22:07:40;3.87;;;0.87;;
36789;SDS011;22740;52.182;8.780;2022-08-23T22:13:42;6.63;;;1.20;;
36789;SDS011;22740;52.182;8.780;2022-08-23T22:19:45;2.50;;;1.33;;
36789;SDS011;22740;52.182;8.780;2022-08-23T22:25:48;4.80;;;1.10;;
36789;SDS011;22740;52.182;8.780;2022-08-23T22:31:52;1.85;;;1.00;;
36789;SDS011;22740;52.182;8.780;2022-08-23T22:37:54;2.25;;;0.90;;
36789;SDS011;22740;52.182;8.780;2022-08-23T22:44:13;4.32;;;1.00;;
36789;SDS011;22740;52.182;8.780;2022-08-23T22:50:20;4.40;;;1.10;;
36789;SDS011;22740;52.182;8.780;2022-08-23T22:56:24;5.35;;;1.42;;
36789;SDS011;22740;52.182;8.780;2022-08-23T23:02:30;5.25;;;1.00;;
36789;SDS011;22740;52.182;8.780;2022-08-23T23:08:32;2.38;;;1.05;;
36789;SDS011;22740;52.182;8.780;2022-08-23T23:14:34;5.70;;;1.38;;
36789;SDS011;22740;52.182;8.780;2022-08-23T23:20:36;4.35;;;1.20;;
36789;SDS011;22740;52.182;8.780;2022-08-23T23:26:39;3.72;;;1.10;;
36789;SDS011;22740;52.182;8.780;2022-08-23T23:32:47;3.97;;;1.17;;
36789;SDS011;22740;52.182;8.780;2022-08-23T23:38:49;4.47;;;0.98;;
36789;SDS011;22740;52.182;8.780;2022-08-23T23:44:55;4.07;;;1.10;;
36789;SDS011;22740;52.182;8.780;2022-08-23T23:50:59;4.63;;;1.08;;
36789;SDS011;22740;52.182;8.780;2022-08-23T23:57:05;2.17;;;1.00;;
